PWSweather.com
Personal Weather Stations
Station Observations
BLACKWELL
Blackwell, AlfretonGB DE55

BlackwellAlfretonGB DE55

Lat: 53.12076, Lon: -1.354978

Elevation: 410

Station Type: Vantage Pro

High Low Average
Temperature 57.7°F14.3°C 38.3°F3.5°C 47.2°F8.4°C
Dew Point 44.1°F6.7°C 36.7°F2.6°C 40.6°F4.8°C
Winds Calm Calm Calm Calm Calm ESECalm ESE
Wind Gusts 4.0 mph6.4 kmh -- 1.0 mph1.6 kmh
Humidity 96% 53% 79%
Pressure 30.08 in1018.6 mb 29.67 in1004.7 mb -
Precipitation 0.01 in0.3 mm - -
Hour Temp Dew Point Humidity Winds Wind Gusts Pressure Precip Precip Rate Daily Precip Total
12:32 AM 41.2°F5.1°C 39.6°F4.2°C 94% Calm Calm -- 30.08 in1018.6 mb 0.00 in0.0 mm 0.00 in0.0 mm 0.00 in0.0 mm
01:32 AM 41.0°F5.0°C 39.4°F4.1°C 94% Calm Calm -- 30.07 in1018.3 mb 0.00 in0.0 mm 0.00 in0.0 mm 0.00 in0.0 mm
02:32 AM 40.3°F4.6°C 38.7°F3.7°C 94% Calm Calm -- 30.05 in1017.6 mb 0.00 in0.0 mm 0.00 in0.0 mm 0.00 in0.0 mm
03:32 AM 39.4°F4.1°C 37.8°F3.2°C 94% Calm Calm -- 30.04 in1017.3 mb 0.00 in0.0 mm 0.00 in0.0 mm 0.00 in0.0 mm
04:32 AM 38.3°F3.5°C 36.7°F2.6°C 94% Calm Calm -- 30.02 in1016.6 mb 0.00 in0.0 mm 0.00 in0.0 mm 0.00 in0.0 mm
05:32 AM 38.5°F3.6°C 37.2°F2.9°C 95% Calm Calm -- 30.01 in1016.3 mb 0.00 in0.0 mm 0.00 in0.0 mm 0.00 in0.0 mm
06:32 AM 40.8°F4.9°C 39.7°F4.3°C 96% Calm Calm -- 30.01 in1016.3 mb 0.00 in0.0 mm 0.00 in0.0 mm 0.00 in0.0 mm
07:32 AM 43.0°F6.1°C 41.7°F5.4°C 95% Calm Calm -- 30.00 in1015.9 mb 0.00 in0.0 mm 0.00 in0.0 mm 0.00 in0.0 mm
08:32 AM 46.4°F8.0°C 41.5°F5.3°C 83% Calm Calm 2.0 mph3.2 kmh 29.99 in1015.6 mb 0.00 in0.0 mm 0.00 in0.0 mm 0.00 in0.0 mm
09:32 AM 49.1°F9.5°C 39.4°F4.1°C 69% Calm Calm 4.0 mph6.4 kmh 29.97 in1014.9 mb 0.00 in0.0 mm 0.00 in0.0 mm 0.00 in0.0 mm
10:32 AM 51.3°F10.7°C 40.3°F4.6°C 66% Calm Calm 2.0 mph3.2 kmh 29.96 in1014.6 mb 0.00 in0.0 mm 0.00 in0.0 mm 0.00 in0.0 mm
11:32 AM 51.4°F10.8°C 38.8°F3.8°C 62% Calm Calm 1.0 mph1.6 kmh 29.94 in1013.9 mb 0.00 in0.0 mm 0.00 in0.0 mm 0.00 in0.0 mm
12:32 PM 55.0°F12.8°C 41.0°F5.0°C 59% Calm Calm 2.0 mph3.2 kmh 29.92 in1013.2 mb 0.00 in0.0 mm 0.00 in0.0 mm 0.00 in0.0 mm
01:32 PM 57.7°F14.3°C 40.8°F4.9°C 53% Calm Calm 3.0 mph4.8 kmh 29.89 in1012.2 mb 0.00 in0.0 mm 0.00 in0.0 mm 0.00 in0.0 mm
02:32 PM 56.3°F13.5°C 39.4°F4.1°C 53% Calm Calm 2.0 mph3.2 kmh 29.87 in1011.5 mb 0.00 in0.0 mm 0.00 in0.0 mm 0.00 in0.0 mm
03:32 PM 54.3°F12.4°C 41.2°F5.1°C 61% Calm Calm 2.0 mph3.2 kmh 29.85 in1010.8 mb 0.00 in0.0 mm 0.00 in0.0 mm 0.00 in0.0 mm
04:32 PM 51.4°F10.8°C 42.8°F6.0°C 72% Calm Calm -- 29.84 in1010.5 mb 0.00 in0.0 mm 0.00 in0.0 mm 0.00 in0.0 mm
05:32 PM 49.6°F9.8°C 44.1°F6.7°C 81% Calm Calm -- 29.81 in1009.5 mb 0.01 in0.3 mm 0.00 in0.0 mm 0.01 in0.3 mm
06:32 PM 50.2°F10.1°C 42.8°F6.0°C 76% Calm Calm 1.0 mph1.6 kmh 29.79 in1008.8 mb 0.00 in0.0 mm 0.00 in0.0 mm 0.01 in0.3 mm
07:32 PM 49.1°F9.5°C 41.2°F5.1°C 74% Calm Calm 1.0 mph1.6 kmh 29.77 in1008.1 mb 0.00 in0.0 mm 0.00 in0.0 mm 0.01 in0.3 mm
08:32 PM 47.8°F8.8°C 42.1°F5.6°C 80% Calm Calm 1.0 mph1.6 kmh 29.76 in1007.8 mb 0.00 in0.0 mm 0.00 in0.0 mm 0.01 in0.3 mm
09:32 PM 46.9°F8.3°C 42.1°F5.6°C 83% Calm Calm 2.0 mph3.2 kmh 29.74 in1007.1 mb 0.00 in0.0 mm 0.00 in0.0 mm 0.01 in0.3 mm
10:32 PM 46.6°F8.1°C 42.3°F5.7°C 85% Calm Calm 1.0 mph1.6 kmh 29.70 in1005.8 mb 0.00 in0.0 mm 0.00 in0.0 mm 0.01 in0.3 mm
11:32 PM 46.0°F7.8°C 42.6°F5.9°C 88% Calm Calm 1.0 mph1.6 kmh 29.67 in1004.7 mb 0.00 in0.0 mm 0.00 in0.0 mm 0.01 in0.3 mm